createdAt,value
2023-07-02T00:01:06.035Z,99345.63
2023-07-02T00:03:32.547Z,99348.88
2023-07-02T00:05:59.082Z,99350.06
2023-07-02T00:08:25.564Z,99341.28
2023-07-02T00:10:53.103Z,99338.06
2023-07-02T00:13:19.672Z,99335.06
2023-07-02T00:15:46.177Z,99340.66
2023-07-02T00:18:12.661Z,99345.00
2023-07-02T00:20:39.213Z,99339.31
2023-07-02T00:23:05.715Z,99334.63
2023-07-02T00:25:33.109Z,99337.63
2023-07-02T00:27:59.628Z,99341.66
2023-07-02T00:30:26.116Z,99336.84
2023-07-02T00:32:52.741Z,99341.22
2023-07-02T00:35:19.258Z,99335.84
2023-07-02T00:37:46.677Z,99334.53
2023-07-02T00:40:14.106Z,99329.41
2023-07-02T00:42:41.533Z,99337.19
2023-07-02T00:45:08.043Z,99338.22
2023-07-02T00:47:34.609Z,99334.59
2023-07-02T00:50:01.170Z,99324.00
2023-07-02T00:52:27.702Z,99327.13
2023-07-02T00:54:54.212Z,99333.72
2023-07-02T00:57:20.832Z,99321.59
2023-07-02T00:59:47.320Z,99330.28
2023-07-02T01:02:13.834Z,99327.59
2023-07-02T01:04:40.429Z,99321.88
2023-07-02T01:07:06.967Z,99321.53
2023-07-02T01:09:33.469Z,99313.13
2023-07-02T01:12:00.947Z,99312.81
2023-07-02T01:14:27.450Z,99315.91
2023-07-02T01:16:53.964Z,99323.72
2023-07-02T01:19:21.375Z,99312.97
2023-07-02T01:21:47.871Z,99319.78
2023-07-02T01:24:14.373Z,99314.06
2023-07-02T01:26:40.871Z,99311.75
2023-07-02T01:29:08.312Z,99314.25
2023-07-02T01:31:34.885Z,99306.44
2023-07-02T01:34:01.410Z,99307.41
2023-07-02T01:36:27.911Z,99302.25
2023-07-02T01:38:54.400Z,99294.66
2023-07-02T01:41:21.818Z,99295.19
2023-07-02T01:43:49.231Z,99299.91
2023-07-02T01:46:16.751Z,99296.34
2023-07-02T01:48:43.281Z,99300.78
2023-07-02T01:51:09.777Z,99297.91
2023-07-02T01:53:36.284Z,99295.84
2023-07-02T01:56:03.723Z,99291.09
2023-07-02T01:58:31.138Z,99295.09
2023-07-02T02:00:57.711Z,99295.09
2023-07-02T02:03:25.323Z,99295.22
2023-07-02T02:05:52.779Z,99291.66
2023-07-02T02:08:20.222Z,99288.91
2023-07-02T02:10:46.934Z,99291.75
2023-07-02T02:13:14.555Z,99293.06
2023-07-02T02:15:41.112Z,99285.97
2023-07-02T02:18:08.602Z,99289.19
2023-07-02T02:20:35.108Z,99281.81
2023-07-02T02:23:02.546Z,99286.59
2023-07-02T02:25:29.052Z,99286.38
2023-07-02T02:27:55.562Z,99284.81
2023-07-02T02:30:22.062Z,99282.81
2023-07-02T02:32:48.622Z,99283.38
2023-07-02T02:35:16.096Z,99282.28
2023-07-02T02:37:42.695Z,99274.22
2023-07-02T02:40:10.167Z,99280.94
2023-07-02T02:42:36.670Z,99285.94
2023-07-02T02:45:04.098Z,99281.69
2023-07-02T02:47:30.666Z,99276.13
2023-07-02T02:49:57.155Z,99275.09
2023-07-02T02:52:24.573Z,99282.81
2023-07-02T02:54:52.015Z,99275.00
2023-07-02T02:57:19.451Z,99278.91
2023-07-02T02:59:45.966Z,99277.25
2023-07-02T03:02:13.368Z,99281.84
2023-07-02T03:04:39.913Z,99282.56
2023-07-02T03:07:06.439Z,99269.19
2023-07-02T03:09:32.937Z,99273.28
2023-07-02T03:11:59.471Z,99271.00
2023-07-02T03:14:26.925Z,99267.38
2023-07-02T03:16:54.452Z,99266.88
2023-07-02T03:19:22.049Z,99265.09
2023-07-02T03:21:49.501Z,99268.09
2023-07-02T03:24:15.982Z,99264.47
2023-07-02T03:26:43.414Z,99265.97
2023-07-02T03:29:09.928Z,99269.63
2023-07-02T03:31:36.466Z,99268.47
2023-07-02T03:34:03.000Z,99263.53
2023-07-02T03:36:30.414Z,99263.91
2023-07-02T03:38:56.890Z,99262.66
2023-07-02T03:41:23.398Z,99268.34
2023-07-02T03:43:49.907Z,99262.75
2023-07-02T03:46:16.430Z,99263.19
2023-07-02T03:48:42.952Z,99260.72
2023-07-02T03:51:10.382Z,99271.25
2023-07-02T03:53:36.865Z,99263.09
2023-07-02T03:56:03.354Z,99267.94
2023-07-02T03:58:29.859Z,99261.28
2023-07-02T04:00:57.295Z,99258.72
2023-07-02T04:03:23.838Z,99253.50
2023-07-02T04:05:51.340Z,99257.63
2023-07-02T04:08:17.834Z,99254.78
2023-07-02T04:10:44.315Z,99257.47
2023-07-02T04:13:10.822Z,99249.06
2023-07-02T04:15:37.323Z,99259.69
2023-07-02T04:18:04.857Z,99247.09
2023-07-02T04:20:31.341Z,99255.38
2023-07-02T04:22:58.760Z,99248.31
2023-07-02T04:25:44.373Z,99247.97
2023-07-02T04:28:12.630Z,99245.81
2023-07-02T04:30:40.048Z,99240.75
2023-07-02T04:33:06.515Z,99246.91
2023-07-02T04:35:33.008Z,99245.00
2023-07-02T04:37:59.496Z,99259.22
2023-07-02T04:40:26.010Z,99262.06
2023-07-02T04:42:53.429Z,99279.41
2023-07-02T04:45:20.851Z,99268.16
2023-07-02T04:47:48.316Z,99270.66
2023-07-02T04:50:14.818Z,99270.84
2023-07-02T04:52:42.225Z,99274.81
2023-07-02T04:55:08.730Z,99272.69
2023-07-02T04:57:36.113Z,99273.66
2023-07-02T05:00:03.538Z,99264.41
2023-07-02T05:02:30.955Z,99269.56
2023-07-02T05:04:57.503Z,99266.78
2023-07-02T05:07:25.000Z,99273.72
2023-07-02T05:09:52.404Z,99264.53
2023-07-02T05:12:18.906Z,99267.69
2023-07-02T05:14:45.668Z,99271.03
2023-07-02T05:17:12.160Z,99269.72
2023-07-02T05:19:38.989Z,99275.94
2023-07-02T05:22:06.378Z,99278.63
2023-07-02T05:24:32.836Z,99273.63
2023-07-02T05:27:00.244Z,99272.25
2023-07-02T05:29:27.031Z,99268.69
2023-07-02T05:31:54.305Z,99273.38
2023-07-02T05:34:20.811Z,99270.91
2023-07-02T05:36:47.585Z,99281.53
2023-07-02T05:39:14.406Z,99278.41
2023-07-02T05:41:41.926Z,99272.72
2023-07-02T05:44:08.660Z,99278.19
2023-07-02T05:46:35.483Z,99278.84
2023-07-02T05:49:02.168Z,99285.00
2023-07-02T05:51:29.012Z,99284.66
2023-07-02T05:53:55.800Z,99282.66
2023-07-02T05:56:23.415Z,99281.88
2023-07-02T05:58:50.165Z,99282.53
2023-07-02T06:01:16.843Z,99290.69
2023-07-02T06:03:43.603Z,99281.31
2023-07-02T06:06:10.609Z,99272.50
2023-07-02T06:08:37.298Z,99279.09
2023-07-02T06:11:04.689Z,99288.34
2023-07-02T06:13:31.151Z,99289.09
2023-07-02T06:15:57.595Z,99286.91
2023-07-02T06:18:24.988Z,99282.66
2023-07-02T06:20:51.858Z,99295.16
2023-07-02T06:23:18.501Z,99293.81
2023-07-02T06:25:45.906Z,99304.31
2023-07-02T06:28:12.357Z,99299.06
2023-07-02T06:30:39.758Z,99306.53
2023-07-02T06:33:07.079Z,99303.75
2023-07-02T06:35:33.538Z,99306.53
2023-07-02T06:38:00.898Z,99302.97
2023-07-02T06:40:27.402Z,99295.19
2023-07-02T06:42:54.747Z,99298.97
2023-07-02T06:45:22.070Z,99299.41
2023-07-02T06:47:48.615Z,99302.72
2023-07-02T06:50:16.233Z,99302.63
2023-07-02T06:52:42.760Z,99301.84
2023-07-02T06:55:09.239Z,99290.56
2023-07-02T06:57:36.542Z,99298.03
2023-07-02T07:00:03.887Z,99299.16
2023-07-02T07:02:30.382Z,99300.25
2023-07-02T07:04:57.781Z,99311.31
2023-07-02T07:07:25.050Z,99310.88
2023-07-02T07:09:52.340Z,99321.25
2023-07-02T07:12:18.827Z,99319.56
2023-07-02T07:14:45.327Z,99334.28
2023-07-02T07:17:11.863Z,99336.31
2023-07-02T07:19:39.151Z,99339.09
2023-07-02T07:22:05.703Z,99337.56
2023-07-02T07:24:32.208Z,99339.56
2023-07-02T07:26:59.504Z,99329.50
2023-07-02T07:29:27.824Z,99338.34
2023-07-02T07:31:54.365Z,99335.44
2023-07-02T07:34:21.675Z,99336.19
2023-07-02T07:36:48.949Z,99341.34
2023-07-02T07:39:16.216Z,99336.88
2023-07-02T07:41:42.678Z,99340.78
2023-07-02T07:44:09.146Z,99342.34
2023-07-02T07:46:36.470Z,99349.47
2023-07-02T07:49:03.021Z,99346.69
2023-07-02T07:51:32.230Z,99350.25
2023-07-02T07:54:01.473Z,99359.44
2023-07-02T07:56:27.960Z,99348.25
2023-07-02T07:58:54.376Z,99345.00
2023-07-02T08:01:20.944Z,99344.22
2023-07-02T08:03:47.445Z,99343.31
2023-07-02T08:06:15.792Z,99347.69
2023-07-02T08:08:42.260Z,99334.94
2023-07-02T08:11:08.718Z,99344.09
2023-07-02T08:13:35.164Z,99348.78
2023-07-02T08:16:01.619Z,99356.72
2023-07-02T08:18:28.055Z,99358.72
2023-07-02T08:20:54.439Z,99356.72
2023-07-02T08:23:20.869Z,99355.81
2023-07-02T08:25:47.301Z,99357.84
2023-07-02T08:28:13.698Z,99360.16
2023-07-02T08:30:40.116Z,99356.91
2023-07-02T08:33:06.645Z,99365.28
2023-07-02T08:35:35.885Z,99367.31
2023-07-02T08:38:02.339Z,99365.28
2023-07-02T08:40:28.717Z,99363.75
2023-07-02T08:42:55.978Z,99378.03
2023-07-02T08:45:22.421Z,99371.69
2023-07-02T08:47:49.697Z,99370.88
2023-07-02T08:50:16.201Z,99375.69
2023-07-02T08:52:43.508Z,99379.25
2023-07-02T08:55:10.762Z,99382.84
2023-07-02T08:57:37.157Z,99380.06
2023-07-02T09:00:04.440Z,99373.22
2023-07-02T09:02:31.850Z,99376.81
2023-07-02T09:04:59.239Z,99379.63
2023-07-02T09:07:25.967Z,99382.41
2023-07-02T09:09:53.217Z,99376.34
2023-07-02T09:12:20.588Z,99377.06
2023-07-02T09:14:47.904Z,99377.06
2023-07-02T09:17:14.400Z,99370.22
2023-07-02T09:19:40.928Z,99379.41
2023-07-02T09:22:07.361Z,99372.56
2023-07-02T09:24:33.906Z,99381.75
2023-07-02T09:27:01.152Z,99390.13
2023-07-02T09:29:28.441Z,99390.91
2023-07-02T09:34:28.060Z,99387.34
2023-07-02T09:36:54.662Z,99392.91
2023-07-02T09:39:21.076Z,99394.47
2023-07-02T09:41:47.474Z,99390.47
2023-07-02T09:44:14.819Z,99397.59
2023-07-02T09:46:44.063Z,99383.94
2023-07-02T09:49:10.510Z,99390.66
2023-07-02T09:51:38.042Z,99386.16
2023-07-02T09:54:04.590Z,99376.56
2023-07-02T09:56:31.837Z,99391.31
2023-07-02T09:58:58.231Z,99364.63
2023-07-02T10:01:24.667Z,99376.56
2023-07-02T10:03:51.993Z,99369.41
2023-07-02T10:06:18.414Z,99371.41
2023-07-02T10:08:44.794Z,99368.19
2023-07-02T10:11:13.975Z,99369.28
2023-07-02T10:13:40.359Z,99376.88
2023-07-02T10:16:06.776Z,99366.84
2023-07-02T10:18:34.284Z,99364.38
2023-07-02T10:21:00.761Z,99363.13
2023-07-02T10:23:27.194Z,99366.25
2023-07-02T10:25:54.434Z,99367.03
2023-07-02T10:28:21.692Z,99367.81
2023-07-02T10:30:48.207Z,99370.16
2023-07-02T10:33:15.800Z,99369.38
2023-07-02T10:35:43.040Z,99355.41
2023-07-02T10:38:10.329Z,99352.59
2023-07-02T10:40:36.750Z,99359.09
2023-07-02T10:43:03.125Z,99354.28
2023-07-02T10:45:29.541Z,99357.06
2023-07-02T10:47:55.959Z,99352.41
2023-07-02T10:50:23.248Z,99362.78
2023-07-02T10:52:49.630Z,99354.41
2023-07-02T10:55:16.014Z,99359.66
2023-07-02T10:57:42.385Z,99363.25
2023-07-02T11:00:08.798Z,99368.06
2023-07-02T11:02:35.282Z,99380.00
2023-07-02T11:05:01.802Z,99378.00
2023-07-02T11:07:28.281Z,99389.19
2023-07-02T11:09:54.708Z,99383.59
2023-07-02T11:12:21.951Z,99394.78
2023-07-02T11:14:48.343Z,99393.91
2023-07-02T11:17:15.657Z,99404.31
2023-07-02T11:19:42.067Z,99408.66
2023-07-02T11:22:08.491Z,99402.41
2023-07-02T11:24:34.907Z,99393.16
2023-07-02T11:27:01.331Z,99397.94
2023-07-02T11:29:27.746Z,99401.19
2023-07-02T11:31:54.240Z,99398.06
2023-07-02T11:34:22.932Z,99394.38
2023-07-02T11:36:51.640Z,99400.50
2023-07-02T11:39:18.869Z,99408.13
2023-07-02T11:41:45.247Z,99405.53
2023-07-02T11:44:11.632Z,99410.09
2023-07-02T11:46:38.036Z,99407.00
2023-07-02T11:49:04.472Z,99400.88
2023-07-02T11:51:30.918Z,99402.88
2023-07-02T11:53:57.324Z,99405.34
2023-07-02T11:56:23.730Z,99402.00
2023-07-02T11:58:50.086Z,99399.38
2023-07-02T12:01:17.433Z,99403.09
2023-07-02T12:03:43.923Z,99400.84
2023-07-02T12:06:11.371Z,99394.59
2023-07-02T12:08:37.812Z,99398.72
2023-07-02T12:11:04.222Z,99400.38
2023-07-02T12:13:30.670Z,99396.03
2023-07-02T12:15:57.095Z,99393.13
2023-07-02T12:18:23.549Z,99394.81
2023-07-02T12:20:50.792Z,99391.34
2023-07-02T12:23:18.064Z,99388.75
2023-07-02T12:25:45.342Z,99392.81
2023-07-02T12:28:13.768Z,99379.81
2023-07-02T12:30:40.484Z,99384.88
2023-07-02T12:33:06.962Z,99388.75
2023-07-02T12:35:33.383Z,99390.34
2023-07-02T12:37:59.787Z,99374.66
2023-07-02T12:40:26.175Z,99387.09
2023-07-02T12:42:52.553Z,99387.09
2023-07-02T12:45:21.433Z,99386.63
2023-07-02T12:47:48.528Z,99379.94
2023-07-02T12:50:15.814Z,99384.63
2023-07-02T12:52:42.208Z,99390.84
2023-07-02T12:55:09.583Z,99378.78
2023-07-02T12:57:36.023Z,99375.22
2023-07-02T13:00:02.489Z,99373.84
2023-07-02T13:02:29.144Z,99386.28
2023-07-02T13:04:55.693Z,99389.72
2023-07-02T13:07:22.288Z,99387.91
2023-07-02T13:09:48.704Z,99391.81
2023-07-02T13:12:16.020Z,99394.66
2023-07-02T13:14:42.394Z,99392.59
2023-07-02T13:17:09.658Z,99403.03
2023-07-02T13:19:36.056Z,99391.84
2023-07-02T13:22:02.542Z,99393.56
2023-07-02T13:24:28.931Z,99409.22
2023-07-02T13:26:55.346Z,99415.34
2023-07-02T13:29:21.722Z,99425.28
2023-07-02T13:31:48.192Z,99418.09
2023-07-02T13:34:15.610Z,99426.00
2023-07-02T13:36:42.063Z,99417.53
2023-07-02T13:39:09.305Z,99433.53
2023-07-02T13:41:35.745Z,99431.38
2023-07-02T13:44:02.218Z,99435.31
2023-07-02T13:46:28.714Z,99435.75
2023-07-02T13:48:55.172Z,99433.66
2023-07-02T13:51:21.645Z,99442.38
2023-07-02T13:53:50.364Z,99434.88
2023-07-02T13:56:16.790Z,99427.50
2023-07-02T13:58:44.423Z,99416.00
2023-07-02T14:01:10.913Z,99423.25
2023-07-02T14:03:37.427Z,99433.22
2023-07-02T14:06:04.786Z,99425.72
2023-07-02T14:08:31.297Z,99430.84
2023-07-02T14:10:57.982Z,99428.84
2023-07-02T14:13:24.375Z,99431.97
2023-07-02T14:15:51.176Z,99430.41
2023-07-02T14:18:17.873Z,99435.06
2023-07-02T14:20:44.277Z,99442.69
2023-07-02T14:23:10.689Z,99429.38
2023-07-02T14:25:41.755Z,99437.41
2023-07-02T14:28:08.820Z,99439.66
2023-07-02T14:30:35.372Z,99439.44
2023-07-02T14:33:04.639Z,99434.97
2023-07-02T14:35:32.023Z,99428.91
2023-07-02T14:37:58.426Z,99435.63
2023-07-02T14:40:24.936Z,99440.44
2023-07-02T14:42:51.341Z,99447.25
2023-07-02T14:45:18.629Z,99444.78
2023-07-02T14:47:45.045Z,99442.88
2023-07-02T14:50:11.466Z,99451.75
2023-07-02T14:52:37.853Z,99452.84
2023-07-02T14:55:04.277Z,99447.25
2023-07-02T14:57:30.670Z,99448.94
2023-07-02T14:59:57.068Z,99448.94
2023-07-02T15:02:23.491Z,99450.94
2023-07-02T15:04:50.086Z,99448.94
2023-07-02T15:07:16.556Z,99447.38
2023-07-02T15:09:42.949Z,99445.34
2023-07-02T15:12:10.222Z,99453.75
2023-07-02T15:14:36.641Z,99450.94
2023-07-02T15:17:03.044Z,99449.72
2023-07-02T15:19:29.495Z,99445.81
2023-07-02T15:21:55.890Z,99454.19
2023-07-02T15:24:22.276Z,99449.84
2023-07-02T15:26:48.675Z,99451.41
2023-07-02T15:29:15.069Z,99449.84
2023-07-02T15:31:41.514Z,99451.75
2023-07-02T15:34:07.888Z,99457.34
2023-07-02T15:36:34.285Z,99453.75
2023-07-02T15:39:00.698Z,99456.53
2023-07-02T15:41:27.091Z,99452.53
2023-07-02T15:43:53.491Z,99452.53
2023-07-02T15:46:20.802Z,99451.28
2023-07-02T15:48:47.216Z,99449.41
2023-07-02T15:51:13.609Z,99444.13
2023-07-02T15:53:40.002Z,99451.28
2023-07-02T15:56:06.433Z,99452.84
2023-07-02T15:58:32.845Z,99453.63
2023-07-02T16:00:59.206Z,99449.16
2023-07-02T16:03:25.713Z,99448.47
2023-07-02T16:05:55.430Z,99454.88
2023-07-02T16:08:25.096Z,99447.69
2023-07-02T16:10:51.504Z,99450.06
2023-07-02T16:13:17.908Z,99450.81
2023-07-02T16:15:44.294Z,99459.22
2023-07-02T16:18:10.712Z,99456.41
2023-07-02T16:20:39.891Z,99463.13
2023-07-02T16:23:06.304Z,99457.22
2023-07-02T16:25:32.722Z,99452.41
2023-07-02T16:27:59.123Z,99460.34
2023-07-02T16:30:25.502Z,99455.97
2023-07-02T16:32:51.914Z,99457.88
2023-07-02T16:35:19.254Z,99460.22
2023-07-02T16:37:45.682Z,99458.19
2023-07-02T16:40:12.069Z,99460.47
2023-07-02T16:42:38.468Z,99456.41
2023-07-02T16:45:05.718Z,99453.63
2023-07-02T16:47:32.117Z,99456.75
2023-07-02T16:49:58.672Z,99455.50
2023-07-02T16:52:27.925Z,99471.41
2023-07-02T16:54:54.345Z,99465.03
2023-07-02T16:57:21.743Z,99470.94
2023-07-02T16:59:49.156Z,99468.16
2023-07-02T17:02:16.462Z,99477.44
2023-07-02T17:04:42.951Z,99470.94
2023-07-02T17:07:10.238Z,99474.84
2023-07-02T17:09:36.729Z,99482.56
2023-07-02T17:12:03.637Z,99482.69
2023-07-02T17:14:30.044Z,99483.34
2023-07-02T17:16:56.424Z,99488.03
2023-07-02T17:19:23.846Z,99502.22
2023-07-02T17:21:50.298Z,99494.84
2023-07-02T17:24:16.779Z,99497.09
2023-07-02T17:26:44.053Z,99497.53
2023-07-02T17:29:10.494Z,99505.03
2023-07-02T17:31:36.963Z,99498.78
2023-07-02T17:34:03.359Z,99507.94
2023-07-02T17:36:29.734Z,99504.50
2023-07-02T17:38:56.946Z,99515.56
2023-07-02T17:41:24.218Z,99512.88
2023-07-02T17:43:50.686Z,99513.53
2023-07-02T17:46:17.982Z,99519.69
2023-07-02T17:48:44.364Z,99521.03
2023-07-02T17:51:10.797Z,99524.97
2023-07-02T17:53:37.166Z,99530.22
2023-07-02T17:56:04.429Z,99531.31
2023-07-02T17:58:30.923Z,99535.38
2023-07-02T18:00:57.658Z,99526.19
2023-07-02T18:03:24.250Z,99532.22
2023-07-02T18:05:51.088Z,99542.63
2023-07-02T18:08:17.797Z,99544.41
2023-07-02T18:10:44.182Z,99545.50
2023-07-02T18:13:10.555Z,99546.88
2023-07-02T18:15:36.938Z,99551.56
2023-07-02T18:18:03.392Z,99558.47
2023-07-02T18:20:29.830Z,99555.03
2023-07-02T18:22:56.249Z,99566.56
2023-07-02T18:25:22.625Z,99561.97
2023-07-02T18:27:49.033Z,99573.25
2023-07-02T18:30:16.635Z,99563.44
2023-07-02T18:32:43.096Z,99572.94
2023-07-02T18:35:10.461Z,99578.03
2023-07-02T18:37:36.846Z,99580.66
2023-07-02T18:40:03.201Z,99579.84
2023-07-02T18:42:29.590Z,99583.56
2023-07-02T18:44:55.982Z,99582.66
2023-07-02T18:47:22.544Z,99595.97
2023-07-02T18:49:49.040Z,99592.84
2023-07-02T18:52:16.352Z,99594.50
2023-07-02T18:54:42.773Z,99605.34
2023-07-02T18:57:10.079Z,99600.88
2023-07-02T18:59:36.563Z,99605.56
2023-07-02T19:02:03.004Z,99623.38
2023-07-02T19:04:29.589Z,99622.44
2023-07-02T19:06:56.107Z,99620.88
2023-07-02T19:09:22.464Z,99631.38
2023-07-02T19:11:48.884Z,99637.53
2023-07-02T19:14:16.165Z,99632.81
2023-07-02T19:16:42.684Z,99643.13
2023-07-02T19:19:09.972Z,99653.97
2023-07-02T19:21:36.355Z,99656.88
2023-07-02T19:24:02.759Z,99664.38
2023-07-02T19:26:31.104Z,99659.66
2023-07-02T19:28:57.579Z,99664.81
2023-07-02T19:31:24.017Z,99669.63
2023-07-02T19:33:50.527Z,99675.75
2023-07-02T19:36:17.849Z,99683.16
2023-07-02T19:38:44.222Z,99689.50
2023-07-02T19:41:12.495Z,99695.88
2023-07-02T19:43:39.779Z,99687.38
2023-07-02T19:46:07.137Z,99699.28
2023-07-02T19:48:33.514Z,99693.69
2023-07-02T19:51:00.764Z,99704.09
2023-07-02T19:53:27.158Z,99709.78
2023-07-02T19:55:53.579Z,99703.72
2023-07-02T19:58:20.835Z,99704.25
2023-07-02T20:00:47.244Z,99709.94
2023-07-02T20:03:14.565Z,99709.72
2023-07-02T20:05:41.137Z,99713.84
2023-07-02T20:08:07.656Z,99714.66
2023-07-02T20:10:34.041Z,99724.25
2023-07-02T20:13:00.436Z,99727.91
2023-07-02T20:15:26.961Z,99725.19
2023-07-02T20:17:53.493Z,99729.56
2023-07-02T20:20:19.958Z,99734.00
2023-07-02T20:22:46.388Z,99733.13
2023-07-02T20:25:43.854Z,99733.41
2023-07-02T20:27:59.999Z,99741.06
2023-07-02T20:30:26.385Z,99739.09
2023-07-02T20:32:52.800Z,99751.91
2023-07-02T20:35:19.229Z,99752.94
2023-07-02T20:37:45.719Z,99750.97
2023-07-02T20:40:13.207Z,99748.69
2023-07-02T20:42:39.825Z,99758.28
2023-07-02T20:45:06.310Z,99759.44
2023-07-02T20:47:32.844Z,99767.09
2023-07-02T20:50:02.101Z,99765.91
2023-07-02T20:52:29.383Z,99772.72
2023-07-02T20:54:55.830Z,99773.75
2023-07-02T20:57:22.238Z,99777.06
2023-07-02T20:59:48.632Z,99771.16
2023-07-02T21:02:15.894Z,99782.66
2023-07-02T21:04:42.304Z,99790.78
2023-07-02T21:07:09.587Z,99782.31
2023-07-02T21:09:35.992Z,99783.56
2023-07-02T21:12:02.398Z,99787.41
2023-07-02T21:14:28.790Z,99789.41
2023-07-02T21:16:55.327Z,99797.25
2023-07-02T21:19:21.844Z,99788.84
2023-07-02T21:21:48.248Z,99794.13
2023-07-02T21:24:14.645Z,99796.91
2023-07-02T21:26:41.014Z,99799.19
2023-07-02T21:29:07.375Z,99806.06
2023-07-02T21:31:33.923Z,99805.38
2023-07-02T21:34:00.319Z,99812.88
2023-07-02T21:36:26.691Z,99807.66
2023-07-02T21:38:53.093Z,99809.66
2023-07-02T21:41:20.345Z,99806.34
2023-07-02T21:43:46.767Z,99816.19
2023-07-02T21:46:16.023Z,99812.53
2023-07-02T21:48:42.437Z,99821.97
2023-07-02T21:51:09.678Z,99818.03
2023-07-02T21:53:36.076Z,99813.50
2023-07-02T21:56:02.516Z,99825.56
2023-07-02T21:58:28.905Z,99817.94
2023-07-02T22:00:56.166Z,99826.94
2023-07-02T22:03:22.543Z,99831.91
2023-07-02T22:05:49.180Z,99827.31
2023-07-02T22:08:16.749Z,99832.72
2023-07-02T22:10:43.980Z,99824.06
2023-07-02T22:13:11.255Z,99831.91
2023-07-02T22:15:37.750Z,99829.63
2023-07-02T22:18:04.296Z,99833.28
2023-07-02T22:20:31.768Z,99830.44
2023-07-02T22:22:59.209Z,99836.78
2023-07-02T22:25:25.685Z,99833.56
2023-07-02T22:27:52.207Z,99835.13
2023-07-02T22:30:18.592Z,99841.31
2023-07-02T22:32:45.093Z,99834.63
2023-07-02T22:35:13.430Z,99836.94
2023-07-02T22:37:40.852Z,99836.00
2023-07-02T22:40:07.277Z,99839.03
2023-07-02T22:42:33.714Z,99840.81
2023-07-02T22:45:00.985Z,99841.56
2023-07-02T22:47:30.210Z,99841.41
2023-07-02T22:49:57.506Z,99842.16
2023-07-02T22:52:23.888Z,99842.78
2023-07-02T22:54:53.074Z,99846.81
2023-07-02T22:57:22.294Z,99846.38
2023-07-02T22:59:48.679Z,99837.84
2023-07-02T23:02:15.994Z,99842.66
2023-07-02T23:04:42.495Z,99844.63
2023-07-02T23:07:08.954Z,99834.22
2023-07-02T23:09:36.203Z,99838.78
2023-07-02T23:12:02.648Z,99837.41
2023-07-02T23:14:29.015Z,99850.56
2023-07-02T23:16:55.453Z,99844.59
2023-07-02T23:19:21.817Z,99847.59
2023-07-02T23:21:48.236Z,99845.38
2023-07-02T23:24:15.486Z,99850.75
2023-07-02T23:26:42.736Z,99851.97
2023-07-02T23:29:09.994Z,99849.28
2023-07-02T23:31:36.522Z,99855.19
2023-07-02T23:34:02.935Z,99855.22
2023-07-02T23:36:29.335Z,99862.53
2023-07-02T23:38:55.711Z,99854.28
2023-07-02T23:41:24.108Z,99855.53
2023-07-02T23:43:51.378Z,99866.53
2023-07-02T23:46:17.893Z,99864.41
2023-07-02T23:48:44.349Z,99859.97
2023-07-02T23:51:10.735Z,99861.41
2023-07-02T23:53:37.161Z,99869.31
2023-07-02T23:56:04.459Z,99865.81
2023-07-02T23:58:32.743Z,99865.81
